sensor_id;sensor_type;location;lat;lon;timestamp;pressure;altitude;pressure_sealevel;temperature;humidity
56912;BME280;42800;53.928;27.662;2023-05-16T00:00:16;98315.38;;;17.50;100.00
56912;BME280;42800;53.928;27.662;2023-05-16T00:02:42;98311.03;;;17.49;100.00
56912;BME280;42800;53.928;27.662;2023-05-16T00:05:08;98313.72;;;17.52;100.00
56912;BME280;42800;53.928;27.662;2023-05-16T00:07:41;98304.63;;;17.35;100.00
56912;BME280;42800;53.928;27.662;2023-05-16T00:10:08;98297.28;;;17.45;100.00
56912;BME280;42800;53.928;27.662;2023-05-16T00:12:34;98302.47;;;17.43;100.00
56912;BME280;42800;53.928;27.662;2023-05-16T00:15:01;98303.78;;;17.55;100.00
56912;BME280;42800;53.928;27.662;2023-05-16T00:17:26;98293.38;;;17.26;100.00
56912;BME280;42800;53.928;27.662;2023-05-16T00:19:53;98300.72;;;17.65;100.00
56912;BME280;42800;53.928;27.662;2023-05-16T00:22:23;98295.63;;;17.48;100.00
56912;BME280;42800;53.928;27.662;2023-05-16T00:24:49;98300.41;;;17.47;100.00
56912;BME280;42800;53.928;27.662;2023-05-16T00:27:15;98299.19;;;17.48;100.00
56912;BME280;42800;53.928;27.662;2023-05-16T00:29:41;98291.22;;;17.50;100.00
56912;BME280;42800;53.928;27.662;2023-05-16T00:32:07;98286.09;;;17.32;100.00
56912;BME280;42800;53.928;27.662;2023-05-16T00:34:33;98301.25;;;17.44;100.00
56912;BME280;42800;53.928;27.662;2023-05-16T00:36:59;98292.59;;;17.42;100.00
56912;BME280;42800;53.928;27.662;2023-05-16T00:39:25;98295.09;;;17.20;100.00
56912;BME280;42800;53.928;27.662;2023-05-16T00:41:52;98300.09;;;17.25;100.00
56912;BME280;42800;53.928;27.662;2023-05-16T00:44:18;98282.47;;;17.35;100.00
56912;BME280;42800;53.928;27.662;2023-05-16T00:46:44;98300.53;;;17.07;100.00
56912;BME280;42800;53.928;27.662;2023-05-16T00:49:10;98272.31;;;17.12;100.00
56912;BME280;42800;53.928;27.662;2023-05-16T00:51:37;98269.16;;;16.94;100.00
56912;BME280;42800;53.928;27.662;2023-05-16T00:54:04;98277.59;;;17.07;100.00
56912;BME280;42800;53.928;27.662;2023-05-16T00:56:30;98286.88;;;17.16;100.00
56912;BME280;42800;53.928;27.662;2023-05-16T00:58:57;98285.66;;;17.17;100.00
56912;BME280;42800;53.928;27.662;2023-05-16T01:01:25;98257.69;;;17.12;100.00
56912;BME280;42800;53.928;27.662;2023-05-16T01:03:52;98267.13;;;17.14;100.00
56912;BME280;42800;53.928;27.662;2023-05-16T01:06:18;98272.25;;;17.16;100.00
56912;BME280;42800;53.928;27.662;2023-05-16T01:08:44;98270.06;;;17.07;100.00
56912;BME280;42800;53.928;27.662;2023-05-16T01:11:15;98266.25;;;17.17;100.00
56912;BME280;42800;53.928;27.662;2023-05-16T01:13:50;98257.25;;;17.13;100.00
56912;BME280;42800;53.928;27.662;2023-05-16T01:16:25;98255.97;;;17.18;100.00
56912;BME280;42800;53.928;27.662;2023-05-16T01:18:58;98264.00;;;17.12;100.00
56912;BME280;42800;53.928;27.662;2023-05-16T01:21:41;98262.38;;;17.31;100.00
56912;BME280;42800;53.928;27.662;2023-05-16T01:24:13;98266.53;;;17.23;100.00
56912;BME280;42800;53.928;27.662;2023-05-16T01:26:46;98244.78;;;17.05;100.00
56912;BME280;42800;53.928;27.662;2023-05-16T01:29:14;98238.81;;;16.70;100.00
56912;BME280;42800;53.928;27.662;2023-05-16T01:31:40;98234.03;;;16.91;100.00
56912;BME280;42800;53.928;27.662;2023-05-16T01:34:06;98244.69;;;17.09;100.00
56912;BME280;42800;53.928;27.662;2023-05-16T01:36:40;98230.41;;;16.94;100.00
56912;BME280;42800;53.928;27.662;2023-05-16T01:39:14;98215.34;;;16.95;100.00
56912;BME280;42800;53.928;27.662;2023-05-16T01:41:52;98232.66;;;17.15;100.00
56912;BME280;42800;53.928;27.662;2023-05-16T01:44:36;98214.56;;;16.94;100.00
56912;BME280;42800;53.928;27.662;2023-05-16T01:47:08;98183.53;;;16.67;100.00
56912;BME280;42800;53.928;27.662;2023-05-16T01:49:42;98191.91;;;16.83;100.00
56912;BME280;42800;53.928;27.662;2023-05-16T01:52:13;98194.59;;;16.87;100.00
56912;BME280;42800;53.928;27.662;2023-05-16T01:54:43;98188.03;;;16.97;100.00
56912;BME280;42800;53.928;27.662;2023-05-16T01:57:12;98196.94;;;17.05;100.00
56912;BME280;42800;53.928;27.662;2023-05-16T01:59:39;98190.25;;;16.86;100.00
56912;BME280;42800;53.928;27.662;2023-05-16T02:02:07;98185.00;;;16.71;100.00
56912;BME280;42800;53.928;27.662;2023-05-16T02:04:33;98197.53;;;16.80;100.00
56912;BME280;42800;53.928;27.662;2023-05-16T02:06:59;98196.31;;;16.61;100.00
56912;BME280;42800;53.928;27.662;2023-05-16T02:09:26;98163.44;;;16.46;100.00
56912;BME280;42800;53.928;27.662;2023-05-16T02:11:52;98186.16;;;16.74;100.00
56912;BME280;42800;53.928;27.662;2023-05-16T02:14:18;98194.28;;;16.45;100.00
56912;BME280;42800;53.928;27.662;2023-05-16T02:16:44;98182.69;;;16.70;100.00
56912;BME280;42800;53.928;27.662;2023-05-16T02:19:10;98183.78;;;16.56;100.00
56912;BME280;42800;53.928;27.662;2023-05-16T02:21:36;98177.94;;;16.70;100.00
56912;BME280;42800;53.928;27.662;2023-05-16T02:24:02;98203.94;;;16.93;100.00
56912;BME280;42800;53.928;27.662;2023-05-16T02:26:29;98195.59;;;16.40;100.00
56912;BME280;42800;53.928;27.662;2023-05-16T02:28:55;98217.28;;;17.14;100.00
56912;BME280;42800;53.928;27.662;2023-05-16T02:31:28;98207.56;;;17.23;100.00
56912;BME280;42800;53.928;27.662;2023-05-16T02:33:55;98197.41;;;16.47;100.00
56912;BME280;42800;53.928;27.662;2023-05-16T02:36:21;98158.56;;;16.34;100.00
56912;BME280;42800;53.928;27.662;2023-05-16T02:38:47;98163.66;;;16.72;100.00
56912;BME280;42800;53.928;27.662;2023-05-16T02:41:13;98169.72;;;16.67;100.00
56912;BME280;42800;53.928;27.662;2023-05-16T02:43:38;98131.25;;;16.36;100.00
56912;BME280;42800;53.928;27.662;2023-05-16T02:46:19;98113.81;;;16.56;100.00
56912;BME280;42800;53.928;27.662;2023-05-16T02:48:46;98078.59;;;16.23;100.00
56912;BME280;42800;53.928;27.662;2023-05-16T02:51:11;98036.19;;;16.30;100.00
56912;BME280;42800;53.928;27.662;2023-05-16T02:53:37;98053.78;;;16.20;100.00
56912;BME280;42800;53.928;27.662;2023-05-16T02:56:04;98072.63;;;16.25;100.00
56912;BME280;42800;53.928;27.662;2023-05-16T02:58:31;98069.97;;;16.02;100.00
56912;BME280;42800;53.928;27.662;2023-05-16T03:00:57;98008.06;;;16.15;100.00
56912;BME280;42800;53.928;27.662;2023-05-16T03:03:23;97991.91;;;16.14;100.00
56912;BME280;42800;53.928;27.662;2023-05-16T03:05:49;97987.81;;;16.02;100.00
56912;BME280;42800;53.928;27.662;2023-05-16T03:08:16;97954.16;;;16.07;100.00
56912;BME280;42800;53.928;27.662;2023-05-16T03:10:42;97932.38;;;15.93;100.00
56912;BME280;42800;53.928;27.662;2023-05-16T03:13:08;97936.25;;;16.12;100.00
56912;BME280;42800;53.928;27.662;2023-05-16T03:15:34;97942.25;;;16.10;100.00
56912;BME280;42800;53.928;27.662;2023-05-16T03:18:00;97945.41;;;16.25;100.00
56912;BME280;42800;53.928;27.662;2023-05-16T03:20:25;97940.75;;;16.06;100.00
56912;BME280;42800;53.928;27.662;2023-05-16T03:22:52;97955.69;;;16.08;100.00
56912;BME280;42800;53.928;27.662;2023-05-16T03:25:18;97949.22;;;15.98;100.00
56912;BME280;42800;53.928;27.662;2023-05-16T03:27:44;97921.06;;;15.87;100.00
56912;BME280;42800;53.928;27.662;2023-05-16T03:30:11;97937.47;;;15.94;100.00
56912;BME280;42800;53.928;27.662;2023-05-16T03:32:37;97922.03;;;15.97;100.00
56912;BME280;42800;53.928;27.662;2023-05-16T03:35:04;97919.16;;;16.00;100.00
56912;BME280;42800;53.928;27.662;2023-05-16T03:37:30;97935.16;;;15.93;100.00
56912;BME280;42800;53.928;27.662;2023-05-16T03:39:56;97924.69;;;15.84;100.00
56912;BME280;42800;53.928;27.662;2023-05-16T03:42:22;97944.06;;;16.17;100.00
56912;BME280;42800;53.928;27.662;2023-05-16T03:44:48;97923.66;;;15.94;100.00
56912;BME280;42800;53.928;27.662;2023-05-16T03:47:14;97927.19;;;15.95;100.00
56912;BME280;42800;53.928;27.662;2023-05-16T03:49:40;97906.56;;;15.83;100.00
56912;BME280;42800;53.928;27.662;2023-05-16T03:52:06;97911.19;;;15.70;100.00
56912;BME280;42800;53.928;27.662;2023-05-16T03:54:32;97915.63;;;15.84;100.00
56912;BME280;42800;53.928;27.662;2023-05-16T03:56:59;97932.84;;;15.71;100.00
56912;BME280;42800;53.928;27.662;2023-05-16T03:59:24;97924.94;;;15.73;100.00
56912;BME280;42800;53.928;27.662;2023-05-16T04:01:50;97930.03;;;15.91;100.00
56912;BME280;42800;53.928;27.662;2023-05-16T04:04:16;97953.47;;;16.03;100.00
56912;BME280;42800;53.928;27.662;2023-05-16T04:06:42;97959.31;;;16.05;100.00
56912;BME280;42800;53.928;27.662;2023-05-16T04:09:08;97961.63;;;15.74;100.00
56912;BME280;42800;53.928;27.662;2023-05-16T04:11:34;97923.78;;;15.71;100.00
56912;BME280;42800;53.928;27.662;2023-05-16T04:14:01;97937.75;;;15.64;100.00
56912;BME280;42800;53.928;27.662;2023-05-16T04:16:27;97917.16;;;15.85;100.00
56912;BME280;42800;53.928;27.662;2023-05-16T04:18:53;97943.59;;;15.69;100.00
56912;BME280;42800;53.928;27.662;2023-05-16T04:21:19;97903.88;;;15.80;100.00
56912;BME280;42800;53.928;27.662;2023-05-16T04:23:44;97925.91;;;15.83;100.00
56912;BME280;42800;53.928;27.662;2023-05-16T04:26:11;97937.63;;;15.87;100.00
56912;BME280;42800;53.928;27.662;2023-05-16T04:28:37;97915.44;;;15.91;100.00
56912;BME280;42800;53.928;27.662;2023-05-16T04:31:03;97932.84;;;15.71;100.00
56912;BME280;42800;53.928;27.662;2023-05-16T04:33:29;97935.22;;;16.06;100.00
56912;BME280;42800;53.928;27.662;2023-05-16T04:35:55;97963.38;;;15.84;100.00
56912;BME280;42800;53.928;27.662;2023-05-16T04:38:23;97951.56;;;16.16;100.00
56912;BME280;42800;53.928;27.662;2023-05-16T04:40:48;97963.59;;;16.10;100.00
56912;BME280;42800;53.928;27.662;2023-05-16T04:43:15;97974.72;;;16.06;100.00
56912;BME280;42800;53.928;27.662;2023-05-16T04:45:41;97962.47;;;16.23;100.00
56912;BME280;42800;53.928;27.662;2023-05-16T04:48:08;97974.69;;;15.90;100.00
56912;BME280;42800;53.928;27.662;2023-05-16T04:50:34;97958.97;;;15.87;100.00
56912;BME280;42800;53.928;27.662;2023-05-16T04:53:00;97936.78;;;16.07;100.00
56912;BME280;42800;53.928;27.662;2023-05-16T04:55:26;97945.13;;;15.70;100.00
56912;BME280;42800;53.928;27.662;2023-05-16T04:57:52;97975.31;;;16.14;100.00
56912;BME280;42800;53.928;27.662;2023-05-16T05:00:18;97963.47;;;15.97;100.00
56912;BME280;42800;53.928;27.662;2023-05-16T05:02:44;97943.59;;;15.86;100.00
56912;BME280;42800;53.928;27.662;2023-05-16T05:05:11;97953.72;;;16.09;100.00
56912;BME280;42800;53.928;27.662;2023-05-16T05:07:37;97974.78;;;16.52;100.00
56912;BME280;42800;53.928;27.662;2023-05-16T05:10:03;98002.91;;;16.50;100.00
56912;BME280;42800;53.928;27.662;2023-05-16T05:12:31;97995.88;;;16.45;100.00
56912;BME280;42800;53.928;27.662;2023-05-16T05:14:57;98001.13;;;16.73;100.00
56912;BME280;42800;53.928;27.662;2023-05-16T05:17:22;98022.38;;;16.46;100.00
56912;BME280;42800;53.928;27.662;2023-05-16T05:19:48;98022.66;;;17.14;100.00
56912;BME280;42800;53.928;27.662;2023-05-16T05:22:15;98038.69;;;16.74;100.00
56912;BME280;42800;53.928;27.662;2023-05-16T05:24:41;98041.22;;;16.84;100.00
56912;BME280;42800;53.928;27.662;2023-05-16T05:27:07;98028.03;;;16.56;100.00
56912;BME280;42800;53.928;27.662;2023-05-16T05:29:33;97981.38;;;16.58;100.00
56912;BME280;42800;53.928;27.662;2023-05-16T05:31:59;97999.97;;;16.57;100.00
56912;BME280;42800;53.928;27.662;2023-05-16T05:34:25;97996.94;;;16.52;100.00
56912;BME280;42800;53.928;27.662;2023-05-16T05:36:51;98033.88;;;16.78;100.00
56912;BME280;42800;53.928;27.662;2023-05-16T05:39:18;98026.31;;;16.62;100.00
56912;BME280;42800;53.928;27.662;2023-05-16T05:41:43;98030.59;;;17.12;100.00
56912;BME280;42800;53.928;27.662;2023-05-16T05:44:10;98047.94;;;17.16;100.00
56912;BME280;42800;53.928;27.662;2023-05-16T05:46:35;98055.66;;;16.92;100.00
56912;BME280;42800;53.928;27.662;2023-05-16T05:49:02;98048.00;;;17.12;100.00
56912;BME280;42800;53.928;27.662;2023-05-16T05:51:28;98065.72;;;17.15;100.00
56912;BME280;42800;53.928;27.662;2023-05-16T05:53:54;98054.03;;;17.24;100.00
56912;BME280;42800;53.928;27.662;2023-05-16T05:56:20;97996.31;;;16.11;100.00
56912;BME280;42800;53.928;27.662;2023-05-16T05:58:46;97934.81;;;16.69;100.00
56912;BME280;42800;53.928;27.662;2023-05-16T06:01:12;97999.13;;;17.06;100.00
56912;BME280;42800;53.928;27.662;2023-05-16T06:03:38;98023.13;;;16.31;100.00
56912;BME280;42800;53.928;27.662;2023-05-16T06:06:05;97980.88;;;16.30;100.00
56912;BME280;42800;53.928;27.662;2023-05-16T06:08:31;97967.63;;;16.38;100.00
56912;BME280;42800;53.928;27.662;2023-05-16T06:10:57;97967.81;;;16.47;100.00
56912;BME280;42800;53.928;27.662;2023-05-16T06:13:23;97999.19;;;16.40;100.00
56912;BME280;42800;53.928;27.662;2023-05-16T06:15:49;97988.03;;;16.60;100.00
56912;BME280;42800;53.928;27.662;2023-05-16T06:18:16;97990.06;;;16.89;100.00
56912;BME280;42800;53.928;27.662;2023-05-16T06:20:41;98008.25;;;16.41;100.00
56912;BME280;42800;53.928;27.662;2023-05-16T06:23:07;97958.38;;;16.61;100.00
56912;BME280;42800;53.928;27.662;2023-05-16T06:25:33;97958.97;;;16.36;100.00
56912;BME280;42800;53.928;27.662;2023-05-16T06:27:59;97936.03;;;16.06;100.00
56912;BME280;42800;53.928;27.662;2023-05-16T06:30:26;97930.06;;;16.24;100.00
56912;BME280;42800;53.928;27.662;2023-05-16T06:32:52;97904.72;;;16.87;100.00
56912;BME280;42800;53.928;27.662;2023-05-16T06:35:18;97858.22;;;16.66;100.00
56912;BME280;42800;53.928;27.662;2023-05-16T06:37:44;97829.06;;;16.19;100.00
56912;BME280;42800;53.928;27.662;2023-05-16T06:40:10;97784.47;;;16.59;100.00
56912;BME280;42800;53.928;27.662;2023-05-16T06:42:36;97760.88;;;16.42;100.00
56912;BME280;42800;53.928;27.662;2023-05-16T06:45:03;97774.72;;;16.13;100.00
56912;BME280;42800;53.928;27.662;2023-05-16T06:47:30;97747.41;;;16.15;100.00
56912;BME280;42800;53.928;27.662;2023-05-16T06:49:56;97705.13;;;16.43;100.00
56912;BME280;42800;53.928;27.662;2023-05-16T06:52:22;97700.41;;;16.57;100.00
56912;BME280;42800;53.928;27.662;2023-05-16T06:54:47;97701.38;;;15.63;100.00
56912;BME280;42800;53.928;27.662;2023-05-16T06:57:13;97675.72;;;16.08;100.00
56912;BME280;42800;53.928;27.662;2023-05-16T06:59:39;97685.28;;;16.32;100.00
56912;BME280;42800;53.928;27.662;2023-05-16T07:02:05;97687.00;;;16.55;100.00
56912;BME280;42800;53.928;27.662;2023-05-16T07:04:32;97714.78;;;16.10;100.00
56912;BME280;42800;53.928;27.662;2023-05-16T07:07:00;97688.78;;;16.07;100.00
56912;BME280;42800;53.928;27.662;2023-05-16T07:09:26;97705.59;;;16.13;100.00
56912;BME280;42800;53.928;27.662;2023-05-16T07:11:52;97709.25;;;16.10;100.00
56912;BME280;42800;53.928;27.662;2023-05-16T07:14:18;97702.44;;;16.27;100.00
56912;BME280;42800;53.928;27.662;2023-05-16T07:16:44;97723.75;;;16.14;100.00
56912;BME280;42800;53.928;27.662;2023-05-16T07:19:10;97714.94;;;16.03;100.00
56912;BME280;42800;53.928;27.662;2023-05-16T07:21:37;97703.56;;;16.42;100.00
56912;BME280;42800;53.928;27.662;2023-05-16T07:24:03;97719.66;;;16.18;100.00
56912;BME280;42800;53.928;27.662;2023-05-16T07:26:29;97710.13;;;16.07;100.00
56912;BME280;42800;53.928;27.662;2023-05-16T07:28:56;97697.50;;;15.76;100.00
56912;BME280;42800;53.928;27.662;2023-05-16T07:31:22;97690.09;;;15.73;100.00
56912;BME280;42800;53.928;27.662;2023-05-16T07:33:49;97694.97;;;16.11;100.00
56912;BME280;42800;53.928;27.662;2023-05-16T07:36:15;97710.44;;;16.09;100.00
56912;BME280;42800;53.928;27.662;2023-05-16T07:38:42;97774.22;;;15.85;100.00
56912;BME280;42800;53.928;27.662;2023-05-16T07:41:08;97765.88;;;15.56;100.00
56912;BME280;42800;53.928;27.662;2023-05-16T07:43:34;97765.59;;;15.18;100.00
56912;BME280;42800;53.928;27.662;2023-05-16T07:46:01;97767.59;;;15.34;100.00
56912;BME280;42800;53.928;27.662;2023-05-16T07:48:27;97749.59;;;15.09;100.00
56912;BME280;42800;53.928;27.662;2023-05-16T07:50:53;97767.81;;;15.06;100.00
56912;BME280;42800;53.928;27.662;2023-05-16T07:53:19;97753.16;;;15.42;100.00
56912;BME280;42800;53.928;27.662;2023-05-16T07:55:46;97815.47;;;14.91;100.00
56912;BME280;42800;53.928;27.662;2023-05-16T07:58:12;97981.31;;;14.53;100.00
56912;BME280;42800;53.928;27.662;2023-05-16T08:00:38;98075.63;;;14.41;100.00
56912;BME280;42800;53.928;27.662;2023-05-16T08:03:04;98171.94;;;14.55;100.00
56912;BME280;42800;53.928;27.662;2023-05-16T08:05:31;98131.72;;;14.85;100.00
56912;BME280;42800;53.928;27.662;2023-05-16T08:07:57;98031.19;;;14.62;100.00
56912;BME280;42800;53.928;27.662;2023-05-16T08:10:23;98045.47;;;14.80;100.00
56912;BME280;42800;53.928;27.662;2023-05-16T08:12:49;97983.94;;;14.83;100.00
56912;BME280;42800;53.928;27.662;2023-05-16T08:15:17;97985.72;;;14.94;100.00
56912;BME280;42800;53.928;27.662;2023-05-16T08:17:43;97913.88;;;15.17;100.00
56912;BME280;42800;53.928;27.662;2023-05-16T08:20:10;97858.19;;;15.02;100.00
56912;BME280;42800;53.928;27.662;2023-05-16T08:22:36;97879.06;;;15.03;100.00
56912;BME280;42800;53.928;27.662;2023-05-16T08:25:03;97864.41;;;15.26;100.00
56912;BME280;42800;53.928;27.662;2023-05-16T08:27:29;97788.88;;;15.17;100.00
56912;BME280;42800;53.928;27.662;2023-05-16T08:29:56;97768.53;;;15.43;100.00
56912;BME280;42800;53.928;27.662;2023-05-16T08:32:22;97746.28;;;15.34;100.00
56912;BME280;42800;53.928;27.662;2023-05-16T08:34:48;97762.22;;;15.10;100.00
56912;BME280;42800;53.928;27.662;2023-05-16T08:37:14;97750.56;;;15.19;100.00
56912;BME280;42800;53.928;27.662;2023-05-16T08:39:40;97754.72;;;15.27;100.00
56912;BME280;42800;53.928;27.662;2023-05-16T08:42:07;97767.09;;;15.02;100.00
56912;BME280;42800;53.928;27.662;2023-05-16T08:44:33;97779.22;;;14.89;100.00
56912;BME280;42800;53.928;27.662;2023-05-16T08:47:06;97792.38;;;15.01;100.00
56912;BME280;42800;53.928;27.662;2023-05-16T08:49:36;97815.69;;;15.00;100.00
56912;BME280;42800;53.928;27.662;2023-05-16T08:52:07;97795.72;;;15.45;100.00
56912;BME280;42800;53.928;27.662;2023-05-16T08:54:34;97788.44;;;15.18;100.00
56912;BME280;42800;53.928;27.662;2023-05-16T08:57:00;97799.00;;;15.23;100.00
56912;BME280;42800;53.928;27.662;2023-05-16T08:59:27;97784.31;;;15.26;100.00
56912;BME280;42800;53.928;27.662;2023-05-16T09:01:54;97805.06;;;15.51;100.00
56912;BME280;42800;53.928;27.662;2023-05-16T09:04:20;97775.63;;;15.77;100.00
56912;BME280;42800;53.928;27.662;2023-05-16T09:06:47;97772.69;;;15.51;100.00
56912;BME280;42800;53.928;27.662;2023-05-16T09:09:13;97778.47;;;15.57;100.00
56912;BME280;42800;53.928;27.662;2023-05-16T09:11:39;97816.28;;;15.44;100.00
56912;BME280;42800;53.928;27.662;2023-05-16T09:14:06;97775.63;;;15.44;100.00
56912;BME280;42800;53.928;27.662;2023-05-16T09:16:32;97764.47;;;15.64;100.00
56912;BME280;42800;53.928;27.662;2023-05-16T09:18:59;97759.22;;;15.86;100.00
56912;BME280;42800;53.928;27.662;2023-05-16T09:21:28;97783.16;;;15.76;100.00
56912;BME280;42800;53.928;27.662;2023-05-16T09:23:54;97749.75;;;16.16;100.00
56912;BME280;42800;53.928;27.662;2023-05-16T09:26:21;97743.50;;;15.83;100.00
56912;BME280;42800;53.928;27.662;2023-05-16T09:28:47;97755.03;;;16.11;100.00
56912;BME280;42800;53.928;27.662;2023-05-16T09:31:20;97729.63;;;16.29;100.00
56912;BME280;42800;53.928;27.662;2023-05-16T09:33:46;97724.09;;;16.29;100.00
56912;BME280;42800;53.928;27.662;2023-05-16T09:36:14;97738.59;;;15.74;100.00
56912;BME280;42800;53.928;27.662;2023-05-16T09:38:41;97769.88;;;16.17;100.00
56912;BME280;42800;53.928;27.662;2023-05-16T09:41:08;97756.25;;;16.10;100.00
56912;BME280;42800;53.928;27.662;2023-05-16T09:43:37;97723.63;;;16.59;100.00
56912;BME280;42800;53.928;27.662;2023-05-16T09:46:03;97707.94;;;16.56;100.00
56912;BME280;42800;53.928;27.662;2023-05-16T09:48:31;97713.31;;;16.47;100.00
56912;BME280;42800;53.928;27.662;2023-05-16T09:50:57;97726.00;;;16.99;100.00
56912;BME280;42800;53.928;27.662;2023-05-16T09:53:29;97738.84;;;17.44;100.00
56912;BME280;42800;53.928;27.662;2023-05-16T09:56:00;97747.38;;;17.11;100.00
56912;BME280;42800;53.928;27.662;2023-05-16T09:58:28;97727.34;;;16.82;100.00
56912;BME280;42800;53.928;27.662;2023-05-16T10:00:55;97734.66;;;17.39;100.00
56912;BME280;42800;53.928;27.662;2023-05-16T10:03:22;97772.66;;;17.26;100.00
56912;BME280;42800;53.928;27.662;2023-05-16T10:05:49;97732.00;;;17.23;100.00
56912;BME280;42800;53.928;27.662;2023-05-16T10:08:19;97740.09;;;17.30;100.00
56912;BME280;42800;53.928;27.662;2023-05-16T10:10:49;97726.31;;;16.76;100.00
56912;BME280;42800;53.928;27.662;2023-05-16T10:13:17;97722.81;;;16.88;100.00
56912;BME280;42800;53.928;27.662;2023-05-16T10:15:44;97729.91;;;17.75;100.00
56912;BME280;42800;53.928;27.662;2023-05-16T10:18:11;97781.25;;;17.67;100.00
56912;BME280;42800;53.928;27.662;2023-05-16T10:20:40;97754.97;;;17.71;100.00
56912;BME280;42800;53.928;27.662;2023-05-16T10:23:08;97735.19;;;17.95;100.00
56912;BME280;42800;53.928;27.662;2023-05-16T10:25:39;97795.88;;;17.93;100.00
56912;BME280;42800;53.928;27.662;2023-05-16T10:28:07;97770.22;;;18.01;100.00
56912;BME280;42800;53.928;27.662;2023-05-16T10:30:35;97797.13;;;17.66;100.00
56912;BME280;42800;53.928;27.662;2023-05-16T10:33:02;97737.31;;;17.43;100.00
56912;BME280;42800;53.928;27.662;2023-05-16T10:35:29;97736.44;;;17.21;100.00
56912;BME280;42800;53.928;27.662;2023-05-16T10:37:56;97760.28;;;17.65;100.00
56912;BME280;42800;53.928;27.662;2023-05-16T10:40:23;97737.53;;;17.10;100.00
56912;BME280;42800;53.928;27.662;2023-05-16T10:42:56;97745.81;;;17.49;100.00
56912;BME280;42800;53.928;27.662;2023-05-16T10:45:23;97753.03;;;17.46;100.00
56912;BME280;42800;53.928;27.662;2023-05-16T10:47:53;97752.88;;;17.62;100.00
56912;BME280;42800;53.928;27.662;2023-05-16T10:50:33;97748.94;;;17.25;100.00
56912;BME280;42800;53.928;27.662;2023-05-16T10:53:14;97733.88;;;17.26;100.00
56912;BME280;42800;53.928;27.662;2023-05-16T10:55:44;97746.81;;;17.42;100.00
56912;BME280;42800;53.928;27.662;2023-05-16T10:58:09;97746.81;;;17.29;100.00
56912;BME280;42800;53.928;27.662;2023-05-16T11:00:38;97747.16;;;17.31;100.00
56912;BME280;42800;53.928;27.662;2023-05-16T11:03:05;97753.56;;;17.67;100.00
56912;BME280;42800;53.928;27.662;2023-05-16T11:05:32;97775.22;;;18.06;100.00
56912;BME280;42800;53.928;27.662;2023-05-16T11:08:01;97775.69;;;17.92;100.00
56912;BME280;42800;53.928;27.662;2023-05-16T11:10:29;97767.94;;;17.74;100.00
56912;BME280;42800;53.928;27.662;2023-05-16T11:13:01;97765.09;;;17.52;100.00
56912;BME280;42800;53.928;27.662;2023-05-16T11:15:30;97780.78;;;17.94;100.00
56912;BME280;42800;53.928;27.662;2023-05-16T11:18:05;97759.00;;;18.05;100.00
56912;BME280;42800;53.928;27.662;2023-05-16T11:20:32;97768.09;;;18.05;100.00
56912;BME280;42800;53.928;27.662;2023-05-16T11:23:21;97751.84;;;17.69;100.00
56912;BME280;42800;53.928;27.662;2023-05-16T11:25:50;97741.59;;;17.57;100.00
56912;BME280;42800;53.928;27.662;2023-05-16T11:28:17;97760.66;;;18.02;100.00
56912;BME280;42800;53.928;27.662;2023-05-16T11:30:45;97768.50;;;18.39;100.00
56912;BME280;42800;53.928;27.662;2023-05-16T11:33:12;97804.72;;;18.35;100.00
56912;BME280;42800;53.928;27.662;2023-05-16T11:35:38;97799.19;;;18.57;100.00
56912;BME280;42800;53.928;27.662;2023-05-16T11:38:04;97782.63;;;18.31;100.00
56912;BME280;42800;53.928;27.662;2023-05-16T11:40:30;97795.00;;;18.74;100.00
56912;BME280;42800;53.928;27.662;2023-05-16T11:42:59;97863.44;;;19.43;100.00
56912;BME280;42800;53.928;27.662;2023-05-16T11:45:27;97977.25;;;19.69;100.00
56912;BME280;42800;53.928;27.662;2023-05-16T11:47:53;97995.63;;;19.97;100.00
56912;BME280;42800;53.928;27.662;2023-05-16T11:50:21;97911.16;;;18.98;100.00
56912;BME280;42800;53.928;27.662;2023-05-16T11:52:50;97899.25;;;19.41;100.00
56912;BME280;42800;53.928;27.662;2023-05-16T11:55:19;98007.75;;;20.13;100.00
56912;BME280;42800;53.928;27.662;2023-05-16T11:57:48;98052.59;;;20.15;100.00
56912;BME280;42800;53.928;27.662;2023-05-16T12:00:17;98023.16;;;20.45;100.00
56912;BME280;42800;53.928;27.662;2023-05-16T12:02:44;97995.78;;;19.72;100.00
56912;BME280;42800;53.928;27.662;2023-05-16T12:05:12;98030.31;;;20.15;100.00
56912;BME280;42800;53.928;27.662;2023-05-16T12:07:39;98034.56;;;19.97;100.00
56912;BME280;42800;53.928;27.662;2023-05-16T12:10:06;98015.31;;;19.37;100.00
56912;BME280;42800;53.928;27.662;2023-05-16T12:12:33;98010.53;;;19.82;100.00
56912;BME280;42800;53.928;27.662;2023-05-16T12:14:59;98016.53;;;19.58;100.00
56912;BME280;42800;53.928;27.662;2023-05-16T12:17:25;98022.28;;;19.42;100.00
56912;BME280;42800;53.928;27.662;2023-05-16T12:19:52;97975.38;;;19.66;100.00
56912;BME280;42800;53.928;27.662;2023-05-16T12:22:19;98012.22;;;19.79;100.00
56912;BME280;42800;53.928;27.662;2023-05-16T12:24:45;98006.66;;;19.57;100.00
56912;BME280;42800;53.928;27.662;2023-05-16T12:27:11;97980.63;;;19.20;100.00
56912;BME280;42800;53.928;27.662;2023-05-16T12:29:37;97966.25;;;19.65;100.00
56912;BME280;42800;53.928;27.662;2023-05-16T12:32:06;98020.69;;;19.54;100.00
56912;BME280;42800;53.928;27.662;2023-05-16T12:34:32;98073.16;;;20.17;100.00
56912;BME280;42800;53.928;27.662;2023-05-16T12:36:58;98112.97;;;20.05;100.00
56912;BME280;42800;53.928;27.662;2023-05-16T12:39:25;98037.84;;;19.74;100.00